Main page
METAR-TAF:

METAR-TAF

Airports :

Worthington Municipal Airport

Worthington, Minnesota, United States

latitude: 43-39N, longitude: 095-35W, elevation: 1574 ft

Current weather observation

The report was made 1 hour and 1 minutes ago, at 23:56 UTC
Wind 16 mph from the West
Temperature 36°F
Humidity 75%
Pressure 29.75 in. Hg
Visibility: 10 miles
Clear sky

METAR: KOTG 202356Z AUTO 26014KT 10SM CLR 02/M02 A2975 RMK AO2 SLP096 T00221022 10039 20022 53018 FZRANO

Time: 18:57 (00:57 UTC)


TAF: missing

Weather observations and forecasts of more than 4000 airports (METAR and TAF reports).

The available stations are represented by yellow and red dots on the map.

Hover mouse over dot to see the name of the station.

Then click to see weather observations and forecasts.

To change the map : click on the green buttons with a black cross to zoom in, on the green button with a dash to zoom out, or on the green arrows for adjacent maps.


METAR-TAF: